createdAt,value
2019-03-26T00:00:52.933Z,25.37
2019-03-26T00:03:25.234Z,22.87
2019-03-26T00:05:57.529Z,16.97
2019-03-26T00:08:29.842Z,19.77
2019-03-26T00:11:02.138Z,20.87
2019-03-26T00:13:36.980Z,11.17
2019-03-26T00:16:09.388Z,16.47
2019-03-26T00:18:41.615Z,20.20
2019-03-26T00:21:14.996Z,18.57
2019-03-26T00:23:47.799Z,17.03
2019-03-26T00:26:20.593Z,15.50
2019-03-26T00:28:52.885Z,15.37
2019-03-26T00:31:25.190Z,16.90
2019-03-26T00:33:57.548Z,19.43
2019-03-26T00:36:30.601Z,10.60
2019-03-26T00:39:02.953Z,12.10
2019-03-26T00:41:35.299Z,9.83
2019-03-26T00:44:08.205Z,15.57
2019-03-26T00:46:41.431Z,10.87
2019-03-26T00:49:15.623Z,12.50
2019-03-26T00:51:47.842Z,12.20
2019-03-26T00:54:20.233Z,12.30
2019-03-26T00:56:53.655Z,18.60
2019-03-26T00:59:26.109Z,14.17
2019-03-26T01:01:58.294Z,9.50
2019-03-26T01:04:33.285Z,13.13
2019-03-26T01:07:07.172Z,8.40
2019-03-26T01:09:40.138Z,16.37
2019-03-26T01:12:13.752Z,12.90
2019-03-26T01:14:46.506Z,12.87
2019-03-26T01:17:20.824Z,12.60
2019-03-26T01:19:54.055Z,15.67
2019-03-26T01:22:27.646Z,13.97
2019-03-26T01:25:00.321Z,13.17
2019-03-26T01:27:34.563Z,19.90
2019-03-26T01:30:06.928Z,10.20
2019-03-26T01:32:39.203Z,16.13
2019-03-26T01:35:11.670Z,17.20
2019-03-26T01:37:44.881Z,12.20
2019-03-26T01:40:17.202Z,14.50
2019-03-26T01:42:49.815Z,12.93
2019-03-26T01:45:22.115Z,13.90
2019-03-26T01:47:54.540Z,14.80
2019-03-26T01:50:26.771Z,18.60
2019-03-26T01:52:58.976Z,13.80
2019-03-26T01:55:31.422Z,17.03
2019-03-26T01:58:03.662Z,21.20
2019-03-26T02:00:36.871Z,19.83
2019-03-26T02:03:10.144Z,22.50
2019-03-26T02:05:42.487Z,17.40
2019-03-26T02:08:15.361Z,17.87
2019-03-26T02:10:49.487Z,17.93
2019-03-26T02:13:22.191Z,25.00
2019-03-26T02:15:54.535Z,23.40
2019-03-26T02:18:26.716Z,16.37
2019-03-26T02:20:58.900Z,20.93
2019-03-26T02:23:32.253Z,23.37
2019-03-26T02:26:05.055Z,17.10
2019-03-26T02:28:37.248Z,23.60
2019-03-26T02:31:09.496Z,18.33
2019-03-26T02:33:43.321Z,17.87
2019-03-26T02:36:16.069Z,16.33
2019-03-26T02:38:51.390Z,16.70
2019-03-26T02:41:24.031Z,16.90
2019-03-26T02:43:56.468Z,26.63
2019-03-26T02:46:28.870Z,18.10
2019-03-26T02:49:01.812Z,20.60
2019-03-26T02:51:34.196Z,14.00
2019-03-26T02:54:06.716Z,15.53
2019-03-26T02:56:39.018Z,18.13
2019-03-26T02:59:11.246Z,15.53
2019-03-26T03:01:43.642Z,13.07
2019-03-26T03:04:15.803Z,14.70
2019-03-26T03:06:48.214Z,14.07
2019-03-26T03:09:21.611Z,10.93
2019-03-26T03:11:54.000Z,16.57
2019-03-26T03:14:27.889Z,11.27
2019-03-26T03:17:00.572Z,14.80
2019-03-26T03:19:34.674Z,18.10
2019-03-26T03:22:07.003Z,16.93
2019-03-26T03:24:39.310Z,20.97
2019-03-26T03:27:12.877Z,14.63
2019-03-26T03:29:45.130Z,17.30
2019-03-26T03:32:17.309Z,18.47
2019-03-26T03:34:49.943Z,14.20
2019-03-26T03:37:22.172Z,14.80
2019-03-26T03:39:54.551Z,14.13
2019-03-26T03:42:26.669Z,16.40
2019-03-26T03:44:58.981Z,12.43
2019-03-26T03:47:34.873Z,19.47
2019-03-26T03:50:07.482Z,15.27
2019-03-26T03:52:43.340Z,13.13
2019-03-26T03:55:15.545Z,12.00
2019-03-26T03:57:52.582Z,16.20
2019-03-26T04:00:39.101Z,24.23
2019-03-26T04:03:12.068Z,15.73
2019-03-26T04:05:44.789Z,17.17
2019-03-26T04:08:17.141Z,15.63
2019-03-26T04:10:49.434Z,15.53
2019-03-26T04:13:21.703Z,20.23
2019-03-26T04:15:56.616Z,15.40
2019-03-26T04:18:28.981Z,21.60
2019-03-26T04:21:01.259Z,9.97
2019-03-26T04:23:33.689Z,12.67
2019-03-26T04:26:05.852Z,12.43
2019-03-26T04:28:38.127Z,7.83
2019-03-26T04:31:11.422Z,18.50
2019-03-26T04:33:44.994Z,14.67
2019-03-26T04:36:25.316Z,9.60
2019-03-26T04:38:52.201Z,15.73
2019-03-26T04:41:25.243Z,12.47
2019-03-26T04:44:02.706Z,13.00
2019-03-26T04:46:35.832Z,11.33
2019-03-26T04:49:09.781Z,8.73
2019-03-26T04:51:48.277Z,10.17
2019-03-26T04:54:20.646Z,7.40
2019-03-26T04:56:53.271Z,9.93
2019-03-26T04:59:25.577Z,11.93
2019-03-26T05:02:00.477Z,12.43
2019-03-26T05:04:33.061Z,10.80
2019-03-26T05:07:06.226Z,10.33
2019-03-26T05:09:40.234Z,10.67
2019-03-26T05:12:12.473Z,9.20
2019-03-26T05:14:44.800Z,14.77
2019-03-26T05:17:17.866Z,10.80
2019-03-26T05:19:55.337Z,17.80
2019-03-26T05:22:29.026Z,8.63
2019-03-26T05:25:01.875Z,9.80
2019-03-26T05:27:44.804Z,8.70
2019-03-26T05:30:09.585Z,11.13
2019-03-26T05:32:43.323Z,12.43
2019-03-26T05:35:15.764Z,7.33
2019-03-26T05:37:48.387Z,10.97
2019-03-26T05:40:24.453Z,9.07
2019-03-26T05:43:00.237Z,10.70
2019-03-26T05:45:36.266Z,6.80
2019-03-26T05:48:09.718Z,11.30
2019-03-26T05:50:44.370Z,7.17
2019-03-26T05:53:16.633Z,5.57
2019-03-26T05:55:50.247Z,9.07
2019-03-26T05:58:26.909Z,9.53
2019-03-26T06:01:01.805Z,10.13
2019-03-26T06:03:34.267Z,12.73
2019-03-26T06:06:08.506Z,8.97
2019-03-26T06:08:41.625Z,20.80
2019-03-26T06:11:14.621Z,10.53
2019-03-26T06:13:46.856Z,15.83
2019-03-26T06:16:22.756Z,10.03
2019-03-26T06:18:55.172Z,10.67
2019-03-26T06:21:27.581Z,13.60
2019-03-26T06:24:00.833Z,10.90
2019-03-26T06:26:33.281Z,14.13
2019-03-26T06:29:06.306Z,12.43
2019-03-26T06:31:40.615Z,9.70
2019-03-26T06:34:13.564Z,12.83
2019-03-26T06:36:46.113Z,8.43
2019-03-26T06:39:20.011Z,11.83
2019-03-26T06:41:54.791Z,12.97
2019-03-26T06:44:27.633Z,20.07
2019-03-26T06:47:01.916Z,18.83
2019-03-26T06:49:35.529Z,23.07
2019-03-26T06:52:09.860Z,14.87
2019-03-26T06:54:47.143Z,20.87
2019-03-26T06:57:20.202Z,14.77
2019-03-26T06:59:53.777Z,10.10
2019-03-26T07:02:27.473Z,14.17
2019-03-26T07:05:01.228Z,7.53
2019-03-26T07:07:33.748Z,13.40
2019-03-26T07:10:06.829Z,13.57
2019-03-26T07:12:39.188Z,12.00
2019-03-26T07:15:13.077Z,17.07
2019-03-26T07:17:45.498Z,19.23
2019-03-26T07:20:18.246Z,16.63
2019-03-26T07:22:54.338Z,7.13
2019-03-26T07:25:28.351Z,10.30
2019-03-26T07:28:07.698Z,9.00
2019-03-26T07:30:47.018Z,13.57
2019-03-26T07:33:19.249Z,13.73
2019-03-26T07:35:56.693Z,11.93
2019-03-26T07:38:29.165Z,12.70
2019-03-26T07:41:02.626Z,27.53
2019-03-26T07:43:34.949Z,15.87
2019-03-26T07:46:08.630Z,21.10
2019-03-26T07:48:41.901Z,12.63
2019-03-26T07:51:14.136Z,13.37
2019-03-26T07:53:47.687Z,14.30
2019-03-26T07:56:21.272Z,9.83
2019-03-26T07:58:55.419Z,20.73
2019-03-26T08:01:29.111Z,10.57
2019-03-26T08:04:02.793Z,13.77
2019-03-26T08:06:35.185Z,8.67
2019-03-26T08:09:10.977Z,8.63
2019-03-26T08:11:45.458Z,11.40
2019-03-26T08:14:17.817Z,10.80
2019-03-26T08:16:51.412Z,7.93
2019-03-26T08:19:23.769Z,9.73
2019-03-26T08:21:55.912Z,12.90
2019-03-26T08:24:27.996Z,12.40
2019-03-26T08:27:00.807Z,6.83
2019-03-26T08:29:33.193Z,6.77
2019-03-26T08:32:05.919Z,8.13
2019-03-26T08:34:38.492Z,7.10
2019-03-26T08:37:10.882Z,6.70
2019-03-26T08:39:45.823Z,5.47
2019-03-26T08:42:19.738Z,8.07
2019-03-26T08:44:53.218Z,10.67
2019-03-26T08:47:25.557Z,10.57
2019-03-26T08:49:58.224Z,9.17
2019-03-26T08:52:30.550Z,10.13
2019-03-26T08:55:05.329Z,14.20
2019-03-26T08:57:37.598Z,12.67
2019-03-26T09:00:11.901Z,7.60
2019-03-26T09:02:46.076Z,6.67
2019-03-26T09:05:21.023Z,9.50
2019-03-26T09:07:55.629Z,9.53
2019-03-26T09:10:28.773Z,13.93
2019-03-26T09:13:03.155Z,7.40
2019-03-26T09:15:40.289Z,8.73
2019-03-26T09:18:16.253Z,9.30
2019-03-26T09:20:51.850Z,8.63
2019-03-26T09:23:24.186Z,7.43
2019-03-26T09:25:57.696Z,8.97
2019-03-26T09:28:32.266Z,7.37
2019-03-26T09:31:04.556Z,9.83
2019-03-26T09:33:39.084Z,8.93
2019-03-26T09:36:14.274Z,6.10
2019-03-26T09:38:46.445Z,8.30
2019-03-26T09:41:18.798Z,8.30
2019-03-26T09:43:51.028Z,10.10
2019-03-26T09:46:23.907Z,10.10
2019-03-26T09:48:56.307Z,8.17
2019-03-26T09:51:29.811Z,8.77
2019-03-26T09:54:04.136Z,10.87
2019-03-26T09:56:39.889Z,7.47
2019-03-26T09:59:12.521Z,6.27
2019-03-26T10:01:44.963Z,5.67
2019-03-26T10:04:18.257Z,8.07
2019-03-26T10:06:51.863Z,7.50
2019-03-26T10:09:24.149Z,7.10
2019-03-26T10:11:56.419Z,7.20
2019-03-26T10:14:31.616Z,4.73
2019-03-26T10:17:05.247Z,9.63
2019-03-26T10:19:39.220Z,6.60
2019-03-26T10:22:12.067Z,12.90
2019-03-26T10:24:46.683Z,6.03
2019-03-26T10:27:18.868Z,5.87
2019-03-26T10:29:51.121Z,5.00
2019-03-26T10:32:23.517Z,7.87
2019-03-26T10:34:55.834Z,9.07
2019-03-26T10:37:29.119Z,9.83
2019-03-26T10:40:02.574Z,9.07
2019-03-26T10:42:34.932Z,9.13
2019-03-26T10:45:08.201Z,8.13
2019-03-26T10:47:41.764Z,5.57
2019-03-26T10:50:14.166Z,25.93
2019-03-26T10:52:46.457Z,8.83
2019-03-26T10:55:19.295Z,12.93
2019-03-26T11:01:01.634Z,8.23
2019-03-26T11:03:33.959Z,7.00
2019-03-26T11:06:06.353Z,6.43
2019-03-26T11:08:38.574Z,10.00
2019-03-26T11:11:10.831Z,6.67
2019-03-26T11:13:45.981Z,9.23
2019-03-26T11:16:18.307Z,12.47
2019-03-26T11:18:50.742Z,8.07
2019-03-26T11:21:23.218Z,13.47
2019-03-26T11:23:58.073Z,11.10
2019-03-26T11:26:31.963Z,11.10
2019-03-26T11:29:06.183Z,13.00
2019-03-26T11:31:38.577Z,10.07
2019-03-26T11:34:10.993Z,12.40
2019-03-26T11:36:43.320Z,10.77
2019-03-26T11:39:15.618Z,13.37
2019-03-26T11:41:47.944Z,11.90
2019-03-26T11:44:21.104Z,17.67
2019-03-26T11:46:53.448Z,17.20
2019-03-26T11:49:27.116Z,13.47
2019-03-26T11:51:59.425Z,16.63
2019-03-26T11:54:31.852Z,13.90
2019-03-26T11:57:04.159Z,19.87
2019-03-26T11:59:36.561Z,14.60
2019-03-26T12:02:10.676Z,17.20
2019-03-26T12:04:42.836Z,10.97
2019-03-26T12:07:15.087Z,16.93
2019-03-26T12:09:47.215Z,14.10
2019-03-26T12:12:19.554Z,17.77
2019-03-26T12:14:52.008Z,14.40
2019-03-26T12:17:24.277Z,16.93
2019-03-26T12:19:56.556Z,15.57
2019-03-26T12:22:31.342Z,20.77
2019-03-26T12:25:03.348Z,20.47
2019-03-26T12:27:39.523Z,13.23
2019-03-26T12:30:12.271Z,15.50
2019-03-26T12:32:45.363Z,23.87
2019-03-26T12:35:29.341Z,22.40
2019-03-26T12:38:23.532Z,14.83
2019-03-26T12:40:56.615Z,15.00
2019-03-26T12:43:28.944Z,12.10
2019-03-26T12:46:01.983Z,20.63
2019-03-26T12:48:34.563Z,17.17
2019-03-26T12:51:06.933Z,14.90
2019-03-26T12:53:39.014Z,19.10
2019-03-26T12:56:11.172Z,18.63
2019-03-26T12:58:44.249Z,20.03
2019-03-26T13:01:17.732Z,14.07
2019-03-26T13:03:49.903Z,11.07
2019-03-26T13:06:25.151Z,7.93
2019-03-26T13:08:57.394Z,11.00
2019-03-26T13:11:29.716Z,9.67
2019-03-26T13:14:03.243Z,5.43
2019-03-26T13:16:36.882Z,17.13
2019-03-26T13:19:11.066Z,11.20
2019-03-26T13:21:43.809Z,11.37
2019-03-26T13:24:16.587Z,16.30
2019-03-26T13:26:49.270Z,11.17
2019-03-26T13:29:25.825Z,7.63
2019-03-26T13:31:58.370Z,12.30
2019-03-26T13:34:30.806Z,11.17
2019-03-26T13:37:04.455Z,11.63
2019-03-26T13:39:36.898Z,15.10
2019-03-26T13:42:12.159Z,13.20
2019-03-26T13:44:44.467Z,17.50
2019-03-26T13:47:17.078Z,18.73
2019-03-26T13:49:51.540Z,23.80
2019-03-26T13:52:24.334Z,19.07
2019-03-26T13:54:58.360Z,14.33
2019-03-26T13:57:30.815Z,20.27
2019-03-26T14:00:03.075Z,20.57
2019-03-26T14:02:35.984Z,17.27
2019-03-26T14:05:12.752Z,22.67
2019-03-26T14:07:48.134Z,17.40
2019-03-26T14:10:20.621Z,17.50
2019-03-26T14:12:53.143Z,20.30
2019-03-26T14:15:26.153Z,22.03
2019-03-26T14:17:59.666Z,22.77
2019-03-26T14:20:33.189Z,25.57
2019-03-26T14:23:06.450Z,23.93
2019-03-26T14:25:40.115Z,23.33
2019-03-26T14:28:13.650Z,21.90
2019-03-26T14:30:47.742Z,24.13
2019-03-26T14:33:20.196Z,26.63
2019-03-26T14:35:52.344Z,26.60
2019-03-26T14:38:24.723Z,27.83
2019-03-26T14:40:57.191Z,23.83
2019-03-26T14:43:30.290Z,24.97
2019-03-26T14:46:02.954Z,26.20
2019-03-26T14:48:35.381Z,29.43
2019-03-26T14:51:11.879Z,25.63
2019-03-26T14:53:44.711Z,29.43
2019-03-26T14:56:17.337Z,26.37
2019-03-26T14:58:51.348Z,24.83
2019-03-26T15:01:24.906Z,25.90
2019-03-26T15:03:57.266Z,22.00
2019-03-26T15:06:29.681Z,28.13
2019-03-26T15:09:02.556Z,29.33
2019-03-26T15:11:36.051Z,23.83
2019-03-26T15:14:09.158Z,26.10
2019-03-26T15:16:44.508Z,24.60
2019-03-26T15:19:16.886Z,25.67
2019-03-26T15:21:49.352Z,27.47
2019-03-26T15:24:21.780Z,25.80
2019-03-26T15:26:54.286Z,28.80
2019-03-26T15:29:26.659Z,31.50
2019-03-26T15:31:59.435Z,20.93
2019-03-26T15:34:36.353Z,27.20
2019-03-26T15:37:06.024Z,30.03
2019-03-26T15:39:39.121Z,32.80
2019-03-26T15:42:11.969Z,30.97
2019-03-26T15:44:44.935Z,25.83
2019-03-26T15:47:17.879Z,32.73
2019-03-26T15:49:54.591Z,23.67
2019-03-26T15:52:27.929Z,25.40
2019-03-26T15:55:01.671Z,30.90
2019-03-26T15:57:34.589Z,24.17
2019-03-26T16:00:08.590Z,26.27
2019-03-26T16:02:41.186Z,28.10
2019-03-26T16:05:14.059Z,22.27
2019-03-26T16:07:47.108Z,31.47
2019-03-26T16:10:19.496Z,34.83
2019-03-26T16:12:51.959Z,26.97
2019-03-26T16:15:25.137Z,36.97
2019-03-26T16:17:57.282Z,49.57
2019-03-26T16:20:29.774Z,23.30
2019-03-26T16:23:02.098Z,26.13
2019-03-26T16:25:35.461Z,28.43
2019-03-26T16:28:10.009Z,31.23
2019-03-26T16:30:45.155Z,26.00
2019-03-26T16:33:17.429Z,51.43
2019-03-26T16:35:51.047Z,40.97
2019-03-26T16:38:23.422Z,29.97
2019-03-26T16:40:55.727Z,27.17
2019-03-26T16:43:28.347Z,25.00
2019-03-26T16:46:00.716Z,27.80
2019-03-26T16:48:33.118Z,24.47
2019-03-26T16:51:06.834Z,23.37
2019-03-26T16:53:39.214Z,26.83
2019-03-26T16:56:11.740Z,29.70
2019-03-26T16:58:43.929Z,26.70
2019-03-26T17:01:16.338Z,28.13
2019-03-26T17:03:48.658Z,29.63
2019-03-26T17:06:21.089Z,27.70
2019-03-26T17:08:53.610Z,23.43
2019-03-26T17:11:25.896Z,30.97
2019-03-26T17:13:59.137Z,26.10
2019-03-26T17:16:31.964Z,31.03
2019-03-26T17:19:04.306Z,30.17
2019-03-26T17:21:36.547Z,32.90
2019-03-26T17:24:08.935Z,30.23
2019-03-26T17:26:42.587Z,27.73
2019-03-26T17:29:14.877Z,25.93
2019-03-26T17:31:47.105Z,24.67
2019-03-26T17:34:19.504Z,29.27
2019-03-26T17:36:52.065Z,26.57
2019-03-26T17:39:24.540Z,26.53
2019-03-26T17:41:56.765Z,34.80
2019-03-26T17:44:29.733Z,29.47
2019-03-26T17:47:02.088Z,32.13
2019-03-26T17:49:34.955Z,30.87
2019-03-26T17:52:08.248Z,30.27
2019-03-26T17:54:41.700Z,37.10
2019-03-26T17:57:16.777Z,33.83
2019-03-26T17:59:49.150Z,26.70
2019-03-26T18:02:21.401Z,34.27
2019-03-26T18:04:54.067Z,26.83
2019-03-26T18:07:26.455Z,29.27
2019-03-26T18:09:58.796Z,31.13
2019-03-26T18:12:31.436Z,31.63
2019-03-26T18:15:04.054Z,32.63
2019-03-26T18:17:41.331Z,29.63
2019-03-26T18:20:15.162Z,34.07
2019-03-26T18:22:47.751Z,32.30
2019-03-26T18:25:21.254Z,34.00
2019-03-26T18:27:54.486Z,34.10
2019-03-26T18:30:27.967Z,34.53
2019-03-26T18:33:01.153Z,32.13
2019-03-26T18:35:37.570Z,36.00
2019-03-26T18:38:11.280Z,32.30
2019-03-26T18:40:45.185Z,48.73
2019-03-26T18:43:18.755Z,33.57
2019-03-26T18:45:51.617Z,31.83
2019-03-26T18:48:24.427Z,33.27
2019-03-26T18:50:57.208Z,29.90
2019-03-26T18:53:29.411Z,34.73
2019-03-26T18:56:02.455Z,34.67
2019-03-26T18:58:34.979Z,32.40
2019-03-26T19:01:09.128Z,36.67
2019-03-26T19:03:42.165Z,40.77
2019-03-26T19:06:14.506Z,32.90
2019-03-26T19:08:46.759Z,34.97
2019-03-26T19:11:19.080Z,29.93
2019-03-26T19:13:51.700Z,30.43
2019-03-26T19:16:24.869Z,34.47
2019-03-26T19:18:57.965Z,35.27
2019-03-26T19:21:30.464Z,31.97
2019-03-26T19:24:04.942Z,37.17
2019-03-26T19:26:37.900Z,38.20
2019-03-26T19:29:10.311Z,35.13
2019-03-26T19:31:42.881Z,35.50
2019-03-26T19:34:15.543Z,32.53
2019-03-26T19:36:48.003Z,33.20
2019-03-26T19:39:20.190Z,32.50
2019-03-26T19:41:52.503Z,37.00
2019-03-26T19:44:25.033Z,35.53
2019-03-26T19:46:58.629Z,35.03
2019-03-26T19:49:31.333Z,37.97
2019-03-26T19:52:03.713Z,39.77
2019-03-26T19:54:36.108Z,32.57
2019-03-26T19:57:08.451Z,36.13
2019-03-26T19:59:41.320Z,32.23
2019-03-26T20:02:13.853Z,33.80
2019-03-26T20:04:46.055Z,34.67
2019-03-26T20:07:18.301Z,39.53
2019-03-26T20:09:51.829Z,35.83
2019-03-26T20:12:24.987Z,36.80
2019-03-26T20:14:57.712Z,38.43
2019-03-26T20:17:29.915Z,34.90
2019-03-26T20:20:03.416Z,39.27
2019-03-26T20:22:37.006Z,33.93
2019-03-26T20:25:10.976Z,33.80
2019-03-26T20:27:43.367Z,31.13
2019-03-26T20:30:17.275Z,35.13
2019-03-26T20:32:50.245Z,35.27
2019-03-26T20:35:24.287Z,35.93
2019-03-26T20:37:56.477Z,33.97
2019-03-26T20:40:29.361Z,32.47
2019-03-26T20:43:03.103Z,29.10
2019-03-26T20:45:36.313Z,33.50
2019-03-26T20:48:08.714Z,33.27
2019-03-26T20:50:42.075Z,29.40
2019-03-26T20:53:18.416Z,30.73
2019-03-26T20:55:54.482Z,32.50
2019-03-26T20:58:30.307Z,33.30
2019-03-26T21:01:02.859Z,31.47
2019-03-26T21:03:35.134Z,33.10
2019-03-26T21:06:07.433Z,33.90
2019-03-26T21:08:39.768Z,33.73
2019-03-26T21:11:12.786Z,32.60
2019-03-26T21:13:50.711Z,30.07
2019-03-26T21:16:19.482Z,31.00
2019-03-26T21:18:51.901Z,29.87
2019-03-26T21:21:24.155Z,30.30
2019-03-26T21:23:56.303Z,32.47
2019-03-26T21:26:28.570Z,28.97
2019-03-26T21:29:00.859Z,27.43
2019-03-26T21:31:34.327Z,27.70
2019-03-26T21:34:06.494Z,28.70
2019-03-26T21:36:38.653Z,30.30
2019-03-26T21:39:11.555Z,28.13
2019-03-26T21:41:44.189Z,28.03
2019-03-26T21:44:17.625Z,26.73
2019-03-26T21:46:49.739Z,23.33
2019-03-26T21:49:21.855Z,29.83
2019-03-26T21:51:54.006Z,31.43
2019-03-26T21:54:26.268Z,27.87
2019-03-26T21:56:58.457Z,30.07
2019-03-26T21:59:30.648Z,27.30
2019-03-26T22:02:03.453Z,27.00
2019-03-26T22:04:35.802Z,30.77
2019-03-26T22:07:08.044Z,26.57
2019-03-26T22:09:40.965Z,28.60
2019-03-26T22:12:13.225Z,29.37
2019-03-26T22:14:46.501Z,30.83
2019-03-26T22:17:18.874Z,28.40
2019-03-26T22:19:52.260Z,34.43
2019-03-26T22:22:25.010Z,30.53
2019-03-26T22:24:58.700Z,29.07
2019-03-26T22:27:31.049Z,29.17
2019-03-26T22:30:03.380Z,28.63
2019-03-26T22:32:35.729Z,30.80
2019-03-26T22:35:08.799Z,30.23
2019-03-26T22:37:40.933Z,26.57
2019-03-26T22:40:13.624Z,28.00
2019-03-26T22:42:45.986Z,26.97
2019-03-26T22:45:18.250Z,27.33
2019-03-26T22:47:50.511Z,30.17
2019-03-26T22:50:22.913Z,30.70
2019-03-26T22:52:55.869Z,30.37
2019-03-26T22:55:28.043Z,29.33
2019-03-26T22:58:00.941Z,27.17
2019-03-26T23:00:35.583Z,28.87
2019-03-26T23:03:10.017Z,29.03
2019-03-26T23:05:47.807Z,26.77
2019-03-26T23:08:21.230Z,27.33
2019-03-26T23:10:53.477Z,30.23
2019-03-26T23:13:25.846Z,29.93
2019-03-26T23:15:58.458Z,26.70
2019-03-26T23:18:30.735Z,31.53
2019-03-26T23:21:02.949Z,29.00
2019-03-26T23:23:35.197Z,30.77
2019-03-26T23:26:08.844Z,27.67
2019-03-26T23:28:41.205Z,26.57
2019-03-26T23:31:14.109Z,25.33
2019-03-26T23:33:46.296Z,24.93
2019-03-26T23:36:19.188Z,25.37
2019-03-26T23:38:51.451Z,26.90
2019-03-26T23:41:25.362Z,27.80
2019-03-26T23:43:57.819Z,25.27
2019-03-26T23:46:30.133Z,28.70
2019-03-26T23:49:03.081Z,25.60
2019-03-26T23:51:38.955Z,22.87
2019-03-26T23:54:15.482Z,24.13
2019-03-26T23:56:47.599Z,23.40
2019-03-26T23:59:19.744Z,21.60
